Time;durP1;ratioP1;P1;durP2;ratioP2;P2;SDS_P1;SDS_P2;PMS_P1;PMS_P2;Temp;Humidity;BMP_temperature;BMP_pressure;BME280_temperature;BME280_humidity;BME280_pressure;Samples;Min_cycle;Max_cycle;Signal;HPM_P1;HPM_P2
2022/05/20 00:00:47;;;;;;;;;;;;;;;23.71;57.31;99752.69;2078678;28;19929;-48
2022/05/20 00:01:48;;;;;;;;;;;;;;;23.70;57.01;99746.41;2078192;28;19937;-47
2022/05/20 00:02:50;;;;;;;;;;;;;;;23.70;57.33;99749.09;2077811;28;20502;-46
2022/05/20 00:03:50;;;;;;;;;;;;;;;23.71;57.16;99750.81;2078452;28;19925;-49
2022/05/20 00:04:52;;;;;;;;;;;;;;;23.70;57.12;99749.09;2078150;28;19928;-46
2022/05/20 00:05:54;;;;;;;;;;;;;;;23.68;57.24;99748.50;2078581;28;20454;-48
2022/05/20 00:06:55;;;;;;;;;;;;;;;23.70;57.10;99754.53;2077809;28;20322;-47
2022/05/20 00:07:56;;;;;;;;;;;;;;;23.69;57.09;99749.34;2077283;28;20402;-46
2022/05/20 00:08:57;;;;;;;;;;;;;;;23.70;57.08;99742.88;2077591;28;19925;-46
2022/05/20 00:09:58;;;;;;;;;;;;;;;23.69;57.35;99743.91;2078237;28;19933;-47
2022/05/20 00:10:59;;;;;;;;;;;;;;;23.69;57.26;99752.03;2078293;28;19951;-47
2022/05/20 00:12:00;;;;;;;;;;;;;;;23.70;57.38;99749.09;2078366;28;19984;-46
2022/05/20 00:13:02;;;;;;;;;;;;;;;23.72;57.03;99754.34;2078122;28;19925;-46
2022/05/20 00:14:05;;;;;;;;;;;;;;;23.70;57.17;99749.09;2077965;28;19925;-50
2022/05/20 00:15:07;;;;;;;;;;;;;;;23.70;57.40;99754.53;2078107;28;19991;-46
2022/05/20 00:16:08;;;;;;;;;;;;;;;23.72;57.33;99752.47;2078383;28;19933;-46
2022/05/20 00:17:09;;;;;;;;;;;;;;;23.69;57.33;99742.03;2075931;28;19952;-46
2022/05/20 00:18:11;;;;;;;;;;;;;;;23.71;57.41;99752.69;2078114;28;19933;-47
2022/05/20 00:19:12;;;;;;;;;;;;;;;23.68;57.14;99753.06;2077744;28;19940;-45
2022/05/20 00:20:15;;;;;;;;;;;;;;;23.67;57.29;99754.13;2078047;28;20031;-46
2022/05/20 00:21:17;;;;;;;;;;;;;;;23.67;57.51;99749.53;2077552;28;19925;-48
2022/05/20 00:22:18;;;;;;;;;;;;;;;23.68;57.52;99750.34;2078712;28;19937;-47
2022/05/20 00:23:19;;;;;;;;;;;;;;;23.70;57.62;99751.00;2077721;28;19965;-49
2022/05/20 00:24:21;;;;;;;;;;;;;;;23.69;57.13;99752.88;2078486;28;20486;-47
2022/05/20 00:26:42;;;;;;;;;;;;;;;23.69;57.26;99763.72;2077897;28;19925;-47
2022/05/20 00:27:42;;;;;;;;;;;;;;;23.68;57.25;99755.78;2077040;28;19948;-48
2022/05/20 00:28:46;;;;;;;;;;;;;;;23.67;57.25;99752.25;2077976;28;19932;-47
2022/05/20 00:29:47;;;;;;;;;;;;;;;23.67;57.60;99754.13;2077656;28;19925;-48
2022/05/20 00:30:49;;;;;;;;;;;;;;;23.68;57.11;99748.50;2078114;28;19939;-48
2022/05/20 00:31:49;;;;;;;;;;;;;;;23.68;57.38;99756.63;2077954;28;19932;-52
2022/05/20 00:32:52;;;;;;;;;;;;;;;23.66;57.46;99749.75;2077423;28;19964;-46
2022/05/20 00:33:53;;;;;;;;;;;;;;;23.69;57.17;99757.47;2076055;28;19956;-46
2022/05/20 00:34:54;;;;;;;;;;;;;;;23.69;57.20;99758.28;2078134;28;20466;-49
2022/05/20 00:35:56;;;;;;;;;;;;;;;23.68;57.44;99764.75;2078187;28;19944;-45
2022/05/20 00:36:58;;;;;;;;;;;;;;;23.67;57.49;99757.66;2078269;28;20414;-44
2022/05/20 00:37:59;;;;;;;;;;;;;;;23.70;57.50;99759.13;2077526;28;20455;-49
2022/05/20 00:39:00;;;;;;;;;;;;;;;23.71;57.32;99767.06;2077409;28;19996;-48
2022/05/20 00:40:01;;;;;;;;;;;;;;;23.68;57.61;99762.06;2077845;28;20067;-48
2022/05/20 00:41:03;;;;;;;;;;;;;;;23.68;57.50;99753.06;2077963;28;19925;-49
2022/05/20 00:42:09;;;;;;;;;;;;;;;23.67;57.37;99751.41;2076528;28;19936;-49
2022/05/20 00:43:15;;;;;;;;;;;;;;;23.68;57.37;99751.22;2078014;28;19934;-45
2022/05/20 00:44:15;;;;;;;;;;;;;;;23.67;57.54;99754.94;2077462;28;19968;-47
2022/05/20 00:45:17;;;;;;;;;;;;;;;23.67;57.43;99757.66;2078399;28;19926;-45
2022/05/20 00:46:20;;;;;;;;;;;;;;;23.68;57.38;99756.63;2077712;28;20617;-47
2022/05/20 00:47:21;;;;;;;;;;;;;;;23.66;57.54;99755.19;2077282;28;19925;-47
2022/05/20 00:48:22;;;;;;;;;;;;;;;23.68;57.30;99762.06;2076686;28;19961;-46
2022/05/20 00:49:23;;;;;;;;;;;;;;;23.68;57.41;99758.47;2077826;28;19975;-47
2022/05/20 00:50:24;;;;;;;;;;;;;;;23.68;57.13;99762.06;2077840;28;19980;-47
2022/05/20 00:51:27;;;;;;;;;;;;;;;23.67;57.28;99757.66;2076583;28;20189;-48
2022/05/20 00:52:32;;;;;;;;;;;;;;;23.68;57.10;99762.06;2077271;28;20307;-48
2022/05/20 00:53:34;;;;;;;;;;;;;;;23.66;57.42;99758.72;2077999;28;19948;-47
2022/05/20 00:54:38;;;;;;;;;;;;;;;23.66;57.37;99761.41;2077979;28;19929;-45
2022/05/20 00:55:41;;;;;;;;;;;;;;;23.66;57.14;99761.41;2077513;28;19956;-47
2022/05/20 00:56:45;;;;;;;;;;;;;;;23.66;57.25;99758.72;2077687;28;20493;-46
2022/05/20 00:57:48;;;;;;;;;;;;;;;23.66;57.08;99758.72;2076893;28;20000;-47
2022/05/20 00:58:50;;;;;;;;;;;;;;;23.68;57.17;99761.19;2077313;28;19932;-47
2022/05/20 00:59:52;;;;;;;;;;;;;;;23.67;57.03;99762.25;2077926;28;19968;-46
2022/05/20 01:00:55;;;;;;;;;;;;;;;23.66;57.04;99763.31;2076827;28;20304;-46
2022/05/20 01:01:57;;;;;;;;;;;;;;;23.66;57.25;99763.31;2078012;28;19925;-46
2022/05/20 01:03:01;;;;;;;;;;;;;;;23.64;57.34;99763.50;2076834;28;20062;-45
2022/05/20 01:04:01;;;;;;;;;;;;;;;23.65;57.21;99762.44;2077776;28;19957;-45
2022/05/20 01:05:04;;;;;;;;;;;;;;;23.65;57.14;99757.03;2077230;28;20126;-47
2022/05/20 01:06:06;;;;;;;;;;;;;;;23.65;57.15;99757.03;2078128;28;20024;-47
2022/05/20 01:07:08;;;;;;;;;;;;;;;23.64;57.39;99761.63;2075494;28;19932;-46
2022/05/20 01:08:13;;;;;;;;;;;;;;;23.64;57.30;99764.31;2077624;28;19933;-47
2022/05/20 01:09:14;;;;;;;;;;;;;;;23.65;57.13;99767.84;2077088;28;19925;-47
2022/05/20 01:10:15;;;;;;;;;;;;;;;23.66;57.36;99772.25;2077580;28;20454;-48
2022/05/20 01:11:16;;;;;;;;;;;;;;;23.66;57.25;99771.44;2077283;28;19936;-46
2022/05/20 01:12:17;;;;;;;;;;;;;;;23.66;56.90;99766.00;2077522;28;19940;-46
2022/05/20 01:13:19;;;;;;;;;;;;;;;23.67;57.07;99771.19;2077406;28;19933;-47
2022/05/20 01:14:20;;;;;;;;;;;;;;;23.64;57.31;99766.22;2077869;28;19957;-45
2022/05/20 01:15:22;;;;;;;;;;;;;;;23.63;57.36;99770.78;2077189;28;19929;-48
2022/05/20 01:16:23;;;;;;;;;;;;;;;23.65;57.19;99770.56;2075741;28;20347;-47
2022/05/20 01:17:25;;;;;;;;;;;;;;;23.64;57.24;99769.75;2076859;28;19935;-45
2022/05/20 01:18:25;;;;;;;;;;;;;;;23.63;57.22;99768.09;2076273;28;19925;-47
2022/05/20 01:19:32;;;;;;;;;;;;;;;23.63;57.30;99764.53;2077181;28;19991;-50
2022/05/20 01:20:37;;;;;;;;;;;;;;;23.62;57.17;99762.88;2077293;28;19960;-46
2022/05/20 01:21:39;;;;;;;;;;;;;;;23.61;57.45;99770.16;2076048;28;20601;-48
2022/05/20 01:22:47;;;;;;;;;;;;;;;23.62;57.21;99766.44;2077502;28;19976;-46
2022/05/20 01:23:49;;;;;;;;;;;;;;;23.64;57.04;99766.22;2077610;28;19925;-46
2022/05/20 01:24:49;;;;;;;;;;;;;;;23.63;57.06;99762.66;2078213;28;19932;-44
2022/05/20 01:25:52;;;;;;;;;;;;;;;23.63;57.22;99762.66;2076948;28;19932;-46
2022/05/20 01:26:53;;;;;;;;;;;;;;;23.63;57.11;99767.25;2077855;28;19941;-46
2022/05/20 01:27:55;;;;;;;;;;;;;;;23.63;57.33;99767.25;2077062;28;20415;-48
2022/05/20 01:28:57;;;;;;;;;;;;;;;23.65;57.11;99765.16;2076546;28;19932;-47
2022/05/20 01:29:57;;;;;;;;;;;;;;;23.63;57.40;99761.84;2077057;28;19925;-46
2022/05/20 01:31:00;;;;;;;;;;;;;;;23.64;57.48;99771.63;2077376;28;19964;-46
2022/05/20 01:32:01;;;;;;;;;;;;;;;23.63;57.29;99776.22;2076769;28;19925;-46
2022/05/20 01:33:03;;;;;;;;;;;;;;;23.63;57.32;99769.97;2077427;28;19968;-47
2022/05/20 01:34:05;;;;;;;;;;;;;;;23.62;57.46;99771.00;2075292;28;19956;-47
2022/05/20 01:35:07;;;;;;;;;;;;;;;23.62;57.03;99774.56;2076904;28;19934;-46
2022/05/20 01:36:10;;;;;;;;;;;;;;;23.61;57.34;99767.44;2076819;28;19964;-47
2022/05/20 01:37:11;;;;;;;;;;;;;;;23.60;57.33;99760.38;2077140;28;19941;-47
2022/05/20 01:38:14;;;;;;;;;;;;;;;23.60;57.50;99762.25;2076256;28;20391;-47
2022/05/20 01:39:14;;;;;;;;;;;;;;;23.61;57.06;99767.44;2075125;28;19925;-45
2022/05/20 01:40:16;;;;;;;;;;;;;;;23.61;57.54;99763.91;2077184;28;20306;-47
2022/05/20 01:41:20;;;;;;;;;;;;;;;23.62;57.11;99762.88;2077546;28;19929;-46
2022/05/20 01:42:23;;;;;;;;;;;;;;;23.64;56.82;99758.06;2076741;28;20548;-46
2022/05/20 01:43:33;;;;;;;;;;;;;;;23.62;57.22;99765.56;2077117;28;19925;-48
2022/05/20 01:44:36;;;;;;;;;;;;;;;23.62;57.13;99765.56;2076061;28;20445;-48
2022/05/20 01:45:43;;;;;;;;;;;;;;;23.61;57.21;99763.91;2077319;28;19926;-46
2022/05/20 01:46:47;;;;;;;;;;;;;;;23.61;57.11;99764.75;2075988;28;19925;-49
2022/05/20 01:47:50;;;;;;;;;;;;;;;23.61;57.48;99758.50;2075824;28;19936;-47
2022/05/20 01:48:57;;;;;;;;;;;;;;;23.60;57.28;99763.09;2076604;28;20307;-51
2022/05/20 01:50:03;;;;;;;;;;;;;;;23.60;57.11;99760.38;2076910;28;19975;-48
2022/05/20 01:51:05;;;;;;;;;;;;;;;23.59;57.35;99756.00;2076668;28;19977;-47
2022/05/20 01:52:11;;;;;;;;;;;;;;;23.60;57.32;99752.25;2076736;28;19925;-47
2022/05/20 01:53:17;;;;;;;;;;;;;;;23.59;57.39;99761.41;2076870;28;20068;-48
2022/05/20 01:54:22;;;;;;;;;;;;;;;23.59;57.16;99761.41;2076787;28;19929;-49
2022/05/20 01:55:27;;;;;;;;;;;;;;;23.59;57.51;99752.44;2075658;28;19925;-47
2022/05/20 01:56:30;;;;;;;;;;;;;;;23.58;57.36;99762.47;2076883;28;20387;-49
2022/05/20 01:57:35;;;;;;;;;;;;;;;23.60;57.31;99762.25;2076825;28;19928;-48
2022/05/20 01:58:39;;;;;;;;;;;;;;;23.59;57.28;99757.88;2076268;28;19929;-48
2022/05/20 01:59:44;;;;;;;;;;;;;;;23.58;57.61;99756.22;2076994;28;19940;-48
2022/05/20 02:00:45;;;;;;;;;;;;;;;23.58;57.20;99759.75;2077185;28;19932;-49
2022/05/20 02:01:51;;;;;;;;;;;;;;;23.59;57.36;99758.69;2077490;28;20016;-49
2022/05/20 02:02:53;;;;;;;;;;;;;;;23.58;57.26;99761.63;2073391;28;19933;-49
2022/05/20 02:03:57;;;;;;;;;;;;;;;23.59;57.27;99757.88;2076648;28;19933;-47
2022/05/20 02:05:00;;;;;;;;;;;;;;;23.59;57.43;99763.28;2077061;28;19972;-50
2022/05/20 02:06:04;;;;;;;;;;;;;;;23.57;57.65;99755.38;2077507;28;19968;-47
2022/05/20 02:07:10;;;;;;;;;;;;;;;23.58;57.33;99762.47;2076911;28;19964;-47
2022/05/20 02:08:13;;;;;;;;;;;;;;;23.59;57.24;99761.41;2077177;28;20015;-47
2022/05/20 02:09:17;;;;;;;;;;;;;;;23.58;57.52;99767.03;2076479;28;19957;-47
2022/05/20 02:10:22;;;;;;;;;;;;;;;23.57;57.63;99765.38;2077151;28;19925;-49
2022/05/20 02:11:26;;;;;;;;;;;;;;;23.57;57.47;99759.97;2076787;28;19925;-50
2022/05/20 02:12:31;;;;;;;;;;;;;;;23.58;57.52;99761.63;2076708;28;19956;-49
2022/05/20 02:13:34;;;;;;;;;;;;;;;23.58;57.59;99761.63;2075355;28;19971;-48
2022/05/20 02:14:38;;;;;;;;;;;;;;;23.57;57.41;99770.81;2077283;28;20374;-48
2022/05/20 02:15:44;;;;;;;;;;;;;;;23.58;57.57;99767.03;2076448;28;19979;-48
2022/05/20 02:16:49;;;;;;;;;;;;;;;23.57;57.14;99763.50;2076865;28;20485;-48
2022/05/20 02:17:53;;;;;;;;;;;;;;;23.58;57.28;99764.34;2076282;28;19929;-48
2022/05/20 02:19:00;;;;;;;;;;;;;;;23.58;57.37;99773.28;2076017;28;19925;-50
2022/05/20 02:20:05;;;;;;;;;;;;;;;23.57;57.68;99770.81;2076663;28;20553;-49
2022/05/20 02:21:09;;;;;;;;;;;;;;;23.59;57.50;99766.00;2075400;28;19925;-47
2022/05/20 02:22:12;;;;;;;;;;;;;;;23.56;57.39;99764.53;2076681;28;19967;-50
2022/05/20 02:23:16;;;;;;;;;;;;;;;23.57;57.51;99771.63;2076684;28;19960;-48
2022/05/20 02:24:22;;;;;;;;;;;;;;;23.57;57.22;99771.63;2077097;28;19955;-47
2022/05/20 02:25:28;;;;;;;;;;;;;;;23.58;57.44;99769.75;2077261;28;19929;-47
2022/05/20 02:26:29;;;;;;;;;;;;;;;23.57;57.31;99770.81;2076595;28;19936;-48
2022/05/20 02:27:33;;;;;;;;;;;;;;;23.57;57.43;99779.75;2076600;28;19973;-48
2022/05/20 02:28:35;;;;;;;;;;;;;;;23.58;57.21;99776.00;2075803;28;19932;-49
2022/05/20 02:29:38;;;;;;;;;;;;;;;23.58;57.41;99783.28;2076216;28;19939;-49
2022/05/20 02:30:39;;;;;;;;;;;;;;;23.58;57.57;99777.88;2074816;28;19933;-47
2022/05/20 02:31:43;;;;;;;;;;;;;;;23.58;57.23;99775.16;2077092;28;19964;-50
2022/05/20 02:32:45;;;;;;;;;;;;;;;23.58;57.25;99773.28;2076175;28;19933;-50
2022/05/20 02:33:46;;;;;;;;;;;;;;;23.59;57.72;99776.81;2076978;28;20367;-48
2022/05/20 02:34:49;;;;;;;;;;;;;;;23.57;57.58;99778.94;2077032;28;19932;-47
2022/05/20 02:35:51;;;;;;;;;;;;;;;23.57;57.31;99776.22;2076587;28;19936;-47
2022/05/20 02:36:51;;;;;;;;;;;;;;;23.55;57.67;99781.84;2076118;28;19933;-47
2022/05/20 02:37:54;;;;;;;;;;;;;;;23.54;57.34;99774.75;2074568;28;20355;-51
2022/05/20 02:38:54;;;;;;;;;;;;;;;23.56;57.23;99774.53;2075858;28;20292;-48
2022/05/20 02:39:58;;;;;;;;;;;;;;;23.55;57.24;99781.00;2077337;28;19932;-48
2022/05/20 02:40:59;;;;;;;;;;;;;;;23.54;57.46;99780.19;2076312;28;19987;-48
2022/05/20 02:42:01;;;;;;;;;;;;;;;23.56;57.52;99774.53;2076810;28;19929;-51
2022/05/20 02:43:01;;;;;;;;;;;;;;;23.55;57.52;99775.59;2075865;28;20379;-50
2022/05/20 02:44:03;;;;;;;;;;;;;;;23.55;57.49;99775.59;2076740;28;19929;-48
2022/05/20 02:45:04;;;;;;;;;;;;;;;23.55;57.36;99772.88;2076726;28;20016;-50
2022/05/20 02:46:05;;;;;;;;;;;;;;;23.57;57.46;99778.94;2077207;28;20404;-47
2022/05/20 02:47:06;;;;;;;;;;;;;;;23.55;57.48;99781.00;2075182;28;19937;-49
2022/05/20 02:48:08;;;;;;;;;;;;;;;23.56;57.51;99774.53;2075900;28;19929;-47
2022/05/20 02:49:09;;;;;;;;;;;;;;;23.54;57.32;99784.75;2076344;28;20510;-49
2022/05/20 02:50:11;;;;;;;;;;;;;;;23.54;57.38;99777.47;2077048;28;19933;-48
2022/05/20 02:51:16;;;;;;;;;;;;;;;23.55;57.08;99772.88;2076844;28;19953;-48
2022/05/20 02:52:18;;;;;;;;;;;;;;;23.54;57.21;99776.63;2076912;28;20426;-47
2022/05/20 02:53:19;;;;;;;;;;;;;;;23.54;57.22;99771.19;2076256;28;19940;-47
2022/05/20 02:54:20;;;;;;;;;;;;;;;23.54;57.45;99774.75;2076942;28;19968;-46
2022/05/20 02:55:23;;;;;;;;;;;;;;;23.55;57.39;99772.88;2068355;28;19933;-47
2022/05/20 02:56:24;;;;;;;;;;;;;;;23.54;57.66;99776.63;2073879;28;19929;-47
2022/05/20 02:57:26;;;;;;;;;;;;;;;23.54;57.45;99776.63;2076185;28;19925;-47
2022/05/20 03:05:07;;;;;;;;;;;;;;;23.52;57.36;99778.72;2077566;28;19928;-48
2022/05/20 03:06:07;;;;;;;;;;;;;;;23.51;57.28;99779.75;2076867;28;19925;-47
2022/05/20 03:07:09;;;;;;;;;;;;;;;23.52;57.15;99779.53;2077389;28;19969;-48
2022/05/20 03:08:09;;;;;;;;;;;;;;;23.50;57.58;99775.38;2076581;28;19943;-48
2022/05/20 03:09:12;;;;;;;;;;;;;;;23.52;57.40;99778.72;2077069;28;20417;-46
2022/05/20 03:10:13;;;;;;;;;;;;;;;23.51;57.61;99777.84;2074974;28;19991;-47
2022/05/20 03:11:16;;;;;;;;;;;;;;;23.52;57.38;99778.72;2077365;28;19925;-48
2022/05/20 03:12:17;;;;;;;;;;;;;;;23.51;57.59;99772.44;2076555;28;19933;-48
2022/05/20 03:13:19;;;;;;;;;;;;;;;23.52;57.42;99779.53;2076805;28;19987;-47
2022/05/20 03:14:20;;;;;;;;;;;;;;;23.52;57.43;99776.00;2076836;28;20403;-50
2022/05/20 03:15:21;;;;;;;;;;;;;;;23.52;57.49;99776.84;2077055;28;19936;-49
2022/05/20 03:16:22;;;;;;;;;;;;;;;23.52;57.69;99771.41;2076599;28;19972;-48
2022/05/20 03:17:24;;;;;;;;;;;;;;;23.53;57.55;99777.66;2074899;28;20587;-47
2022/05/20 03:18:24;;;;;;;;;;;;;;;23.54;57.47;99784.75;2076173;28;19929;-48
2022/05/20 03:19:30;;;;;;;;;;;;;;;23.54;57.34;99785.59;2076282;28;20004;-47
2022/05/20 03:20:30;;;;;;;;;;;;;;;23.54;57.37;99787.44;2076702;28;20581;-47
2022/05/20 03:21:32;;;;;;;;;;;;;;;23.54;57.27;99792.88;2076562;28;19999;-49
2022/05/20 03:22:33;;;;;;;;;;;;;;;23.53;57.54;99785.78;2075696;28;19933;-48
2022/05/20 03:23:34;;;;;;;;;;;;;;;23.54;57.34;99790.16;2076822;28;19979;-48
2022/05/20 03:24:35;;;;;;;;;;;;;;;23.53;57.23;99796.63;2076725;28;19936;-49
2022/05/20 03:25:37;;;;;;;;;;;;;;;23.51;57.25;99787.88;2076558;28;19925;-50
2022/05/20 03:26:39;;;;;;;;;;;;;;;23.51;57.40;99787.88;2074542;28;19933;-56
2022/05/20 03:27:40;;;;;;;;;;;;;;;23.50;57.30;99794.34;2075898;28;20047;-50
2022/05/20 03:28:41;;;;;;;;;;;;;;;23.52;57.19;99800.38;2075757;28;19952;-49
2022/05/20 03:29:43;;;;;;;;;;;;;;;23.51;57.21;99798.69;2077135;28;19933;-47
2022/05/20 03:30:43;;;;;;;;;;;;;;;23.50;57.22;99797.88;2076720;28;19971;-48
2022/05/20 03:31:45;;;;;;;;;;;;;;;23.51;57.43;99788.69;2078581;28;19948;-49
2022/05/20 03:32:47;;;;;;;;;;;;;;;23.49;57.27;99796.22;2078232;28;19956;-50
2022/05/20 03:33:47;;;;;;;;;;;;;;;23.50;57.21;99799.75;2078355;28;19987;-48
2022/05/20 03:34:49;;;;;;;;;;;;;;;23.49;57.51;99798.09;2078479;28;19982;-49
2022/05/20 03:35:49;;;;;;;;;;;;;;;23.49;57.28;99806.22;2075628;28;19933;-50
2022/05/20 03:36:51;;;;;;;;;;;;;;;23.50;57.22;99800.56;2078375;28;19979;-48
2022/05/20 03:37:52;;;;;;;;;;;;;;;23.51;57.36;99804.09;2077832;28;20287;-47
2022/05/20 03:38:53;;;;;;;;;;;;;;;23.52;57.33;99808.50;2077914;28;19933;-50
2022/05/20 03:39:56;;;;;;;;;;;;;;;23.50;57.16;99805.16;2078617;28;20503;-47
2022/05/20 03:40:56;;;;;;;;;;;;;;;23.50;57.37;99802.47;2078056;28;19974;-48
2022/05/20 03:41:59;;;;;;;;;;;;;;;23.50;57.17;99803.28;2078123;28;20326;-47
2022/05/20 03:43:00;;;;;;;;;;;;;;;23.50;57.53;99806.00;2078415;28;19967;-49
2022/05/20 03:44:02;;;;;;;;;;;;;;;23.48;57.48;99801.81;2076233;28;19931;-49
2022/05/20 03:45:04;;;;;;;;;;;;;;;23.48;57.64;99799.13;2078426;28;20308;-47
2022/05/20 03:46:05;;;;;;;;;;;;;;;23.50;57.19;99803.28;2077892;28;19925;-46
2022/05/20 03:47:06;;;;;;;;;;;;;;;23.49;57.58;99807.03;2078565;28;19967;-48
2022/05/20 03:48:08;;;;;;;;;;;;;;;23.48;57.50;99801.81;2078233;28;19933;-47
2022/05/20 03:49:09;;;;;;;;;;;;;;;23.48;57.19;99801.81;2078258;28;19928;-47
2022/05/20 03:50:10;;;;;;;;;;;;;;;23.48;57.59;99812.66;2078082;28;20490;-46
2022/05/20 03:51:12;;;;;;;;;;;;;;;23.49;57.37;99811.63;2078246;28;20283;-49
2022/05/20 03:52:14;;;;;;;;;;;;;;;23.49;57.50;99804.34;2075862;28;19925;-47
2022/05/20 03:53:15;;;;;;;;;;;;;;;23.50;57.26;99807.88;2077443;28;19940;-47
2022/05/20 03:54:17;;;;;;;;;;;;;;;23.49;57.51;99808.94;2077580;28;19932;-49
2022/05/20 03:55:18;;;;;;;;;;;;;;;23.48;57.64;99804.53;2078508;28;19929;-48
2022/05/20 03:56:20;;;;;;;;;;;;;;;23.48;57.61;99812.66;2078232;28;19925;-47
2022/05/20 03:57:21;;;;;;;;;;;;;;;23.48;57.55;99804.53;2078066;28;20323;-46
2022/05/20 03:58:23;;;;;;;;;;;;;;;23.47;57.43;99809.13;2077628;28;19929;-47
2022/05/20 03:59:23;;;;;;;;;;;;;;;23.45;57.61;99813.91;2076881;28;19964;-46
2022/05/20 04:00:25;;;;;;;;;;;;;;;23.46;57.53;99807.47;2077271;28;20386;-46
2022/05/20 04:02:45;;;;;;;;;;;;;;;23.46;57.49;99815.59;2077616;28;19929;-47
2022/05/20 04:03:46;;;;;;;;;;;;;;;23.45;57.69;99811.19;2078679;28;19929;-47
2022/05/20 04:04:50;;;;;;;;;;;;;;;23.44;57.81;99809.53;2077829;28;20619;-47
2022/05/20 04:05:51;;;;;;;;;;;;;;;23.45;57.70;99816.59;2078713;28;19979;-49
2022/05/20 04:06:52;;;;;;;;;;;;;;;23.44;57.57;99809.53;2076302;28;20754;-47
2022/05/20 04:07:54;;;;;;;;;;;;;;;23.46;57.75;99818.28;2077450;28;19933;-48
2022/05/20 04:08:54;;;;;;;;;;;;;;;23.46;57.36;99815.59;2077605;28;19960;-46
2022/05/20 04:09:56;;;;;;;;;;;;;;;23.47;57.44;99816.41;2078172;28;19939;-46
2022/05/20 04:10:57;;;;;;;;;;;;;;;23.46;57.55;99818.28;2078365;28;19960;-48
2022/05/20 04:11:59;;;;;;;;;;;;;;;23.45;57.67;99813.06;2078555;28;19925;-47
2022/05/20 04:13:02;;;;;;;;;;;;;;;23.45;57.65;99821.19;2077969;28;19932;-47
2022/05/20 04:14:03;;;;;;;;;;;;;;;23.46;57.66;99822.84;2078446;28;19969;-47
2022/05/20 04:15:07;;;;;;;;;;;;;;;23.46;57.61;99821.00;2075854;28;19925;-47
2022/05/20 04:16:09;;;;;;;;;;;;;;;23.45;57.47;99821.19;2077848;28;19929;-47
2022/05/20 04:17:11;;;;;;;;;;;;;;;23.44;57.60;99822.25;2077947;28;20470;-47
2022/05/20 04:18:11;;;;;;;;;;;;;;;23.44;57.50;99820.38;2077630;28;19925;-50
2022/05/20 04:19:13;;;;;;;;;;;;;;;23.44;57.39;99819.53;2077652;28;19925;-49
2022/05/20 04:20:15;;;;;;;;;;;;;;;23.43;57.41;99824.13;2078407;28;19983;-48
2022/05/20 04:21:16;;;;;;;;;;;;;;;23.45;57.50;99826.59;2077748;28;20304;-48
2022/05/20 04:22:19;;;;;;;;;;;;;;;23.44;57.41;99817.66;2078557;28;19929;-49
2022/05/20 04:23:20;;;;;;;;;;;;;;;23.45;57.52;99816.59;2075869;28;19957;-46
2022/05/20 04:24:21;;;;;;;;;;;;;;;23.44;57.36;99819.53;2077961;28;20003;-47
2022/05/20 04:25:22;;;;;;;;;;;;;;;23.43;57.57;99818.72;2077202;28;19961;-47
2022/05/20 04:26:24;;;;;;;;;;;;;;;23.44;57.36;99819.53;2077946;28;19925;-47
2022/05/20 04:27:24;;;;;;;;;;;;;;;23.44;57.58;99819.53;2077078;28;19929;-47
2022/05/20 04:28:27;;;;;;;;;;;;;;;23.45;57.33;99821.19;2078061;28;20008;-49
2022/05/20 04:29:28;;;;;;;;;;;;;;;23.44;57.49;99822.25;2077620;28;20601;-48
2022/05/20 04:30:30;;;;;;;;;;;;;;;23.44;57.47;99819.53;2077287;28;19925;-50
2022/05/20 04:31:30;;;;;;;;;;;;;;;23.45;57.37;99810.34;2068156;28;19983;-48
2022/05/20 04:32:32;;;;;;;;;;;;;;;23.45;57.33;99807.66;2076253;28;20449;-49
2022/05/20 04:33:32;;;;;;;;;;;;;;;23.45;57.48;99813.91;2077661;28;19956;-47
2022/05/20 04:34:34;;;;;;;;;;;;;;;23.44;57.32;99814.13;2078337;28;20603;-47
2022/05/20 04:35:34;;;;;;;;;;;;;;;23.45;57.39;99813.06;2077773;28;19957;-49
2022/05/20 04:36:36;;;;;;;;;;;;;;;23.42;57.44;99807.00;2078537;28;20424;-47
2022/05/20 04:37:36;;;;;;;;;;;;;;;23.44;57.36;99816.81;2074124;28;19979;-48
2022/05/20 04:38:38;;;;;;;;;;;;;;;23.43;57.32;99816.00;2077755;28;19925;-49
2022/05/20 04:39:38;;;;;;;;;;;;;;;23.44;57.35;99814.13;2077533;28;20299;-50
2022/05/20 04:40:40;;;;;;;;;;;;;;;23.44;57.24;99819.53;2076591;28;19933;-47
2022/05/20 04:46:59;;;;;;;;;;;;;;;23.42;57.44;99830.56;2039934;28;19934;-48
2022/05/20 04:48:00;;;;;;;;;;;;;;;23.41;57.35;99831.59;2068524;28;19926;-47
2022/05/20 04:49:01;;;;;;;;;;;;;;;23.41;57.22;99837.84;2077761;28;19961;-47
2022/05/20 04:50:04;;;;;;;;;;;;;;;23.42;57.27;99836.81;2077863;28;19932;-48
2022/05/20 04:51:04;;;;;;;;;;;;;;;23.41;57.34;99837.03;2077408;28;19964;-51
2022/05/20 04:52:06;;;;;;;;;;;;;;;23.41;57.20;99835.16;2078016;28;20380;-47
2022/05/20 04:53:08;;;;;;;;;;;;;;;23.42;57.43;99835.97;2074223;28;19992;-49
2022/05/20 04:55:28;;;;;;;;;;;;;;;23.41;57.20;99837.84;2073478;28;20898;-51
2022/05/20 04:56:29;;;;;;;;;;;;;;;23.42;57.24;99841.38;2078083;28;19929;-49
2022/05/20 04:57:31;;;;;;;;;;;;;;;23.42;56.95;99833.25;2077365;28;19979;-47
2022/05/20 04:58:32;;;;;;;;;;;;;;;23.41;57.19;99837.84;2076978;28;19956;-47
2022/05/20 04:59:38;;;;;;;;;;;;;;;23.42;57.10;99839.50;2074876;28;19937;-49
2022/05/20 05:00:40;;;;;;;;;;;;;;;23.41;57.20;99829.72;2077543;28;19925;-50
2022/05/20 05:01:41;;;;;;;;;;;;;;;23.41;57.09;99832.44;2077566;28;19936;-50
2022/05/20 05:02:42;;;;;;;;;;;;;;;23.40;57.37;99836.19;2077888;28;19963;-49
2022/05/20 05:03:43;;;;;;;;;;;;;;;23.41;57.16;99835.16;2076621;28;19972;-51
2022/05/20 05:04:45;;;;;;;;;;;;;;;23.41;57.35;99840.56;2078375;28;20894;-49
2022/05/20 05:05:46;;;;;;;;;;;;;;;23.41;57.35;99842.44;2071938;28;20660;-51
2022/05/20 05:06:47;;;;;;;;;;;;;;;23.41;57.16;99842.44;2074876;28;19948;-46
2022/05/20 05:07:50;;;;;;;;;;;;;;;23.42;57.35;99838.69;2077138;28;19929;-49
2022/05/20 05:08:50;;;;;;;;;;;;;;;23.41;57.33;99843.28;2077715;28;19964;-47
2022/05/20 05:09:53;;;;;;;;;;;;;;;23.41;57.32;99847.84;2077855;28;19936;-49
2022/05/20 05:10:53;;;;;;;;;;;;;;;23.41;57.30;99856.81;2078040;28;19925;-48
2022/05/20 05:11:55;;;;;;;;;;;;;;;23.40;57.43;99841.63;2075102;28;19936;-50
2022/05/20 05:12:57;;;;;;;;;;;;;;;23.40;57.18;99844.31;2077957;28;19925;-49
2022/05/20 05:13:58;;;;;;;;;;;;;;;23.40;57.07;99847.03;2077582;28;19986;-48
2022/05/20 05:15:01;;;;;;;;;;;;;;;23.40;57.17;99847.03;2075977;28;19933;-50
2022/05/20 05:16:05;;;;;;;;;;;;;;;23.40;57.34;99854.28;2077620;28;19932;-50
2022/05/20 05:17:07;;;;;;;;;;;;;;;23.39;57.32;99847.22;2077661;28;19932;-48
2022/05/20 05:18:12;;;;;;;;;;;;;;;23.39;57.40;99849.94;2077262;28;19929;-49
2022/05/20 05:19:13;;;;;;;;;;;;;;;23.38;57.39;99846.38;2078050;28;20418;-49
2022/05/20 05:20:16;;;;;;;;;;;;;;;23.39;57.28;99849.94;2077966;28;20513;-48
2022/05/20 05:21:17;;;;;;;;;;;;;;;23.38;57.42;99848.28;2077574;28;19929;-51
2022/05/20 05:22:19;;;;;;;;;;;;;;;23.39;57.38;99849.94;2077565;28;19932;-48
2022/05/20 05:23:21;;;;;;;;;;;;;;;23.38;57.39;99850.97;2077598;28;19975;-49
2022/05/20 05:24:22;;;;;;;;;;;;;;;23.39;57.24;99852.63;2070939;28;19936;-46
2022/05/20 05:25:25;;;;;;;;;;;;;;;23.38;57.30;99849.09;2076082;28;19936;-50
2022/05/20 05:26:25;;;;;;;;;;;;;;;23.39;57.18;99847.22;2077553;28;19929;-48
2022/05/20 05:28:46;;;;;;;;;;;;;;;23.38;57.30;99850.97;2076065;28;19925;-49
2022/05/20 05:29:47;;;;;;;;;;;;;;;23.37;57.37;99850.16;2078026;28;19929;-46
2022/05/20 05:30:50;;;;;;;;;;;;;;;23.37;57.32;99850.16;2074637;28;20024;-52
2022/05/20 05:31:51;;;;;;;;;;;;;;;23.37;57.21;99849.28;2074653;28;20349;-46
2022/05/20 05:32:52;;;;;;;;;;;;;;;23.37;57.28;99847.44;2077273;28;19936;-49
2022/05/20 05:33:53;;;;;;;;;;;;;;;23.36;57.39;99855.75;2077836;28;19987;-50
2022/05/20 05:34:54;;;;;;;;;;;;;;;23.37;57.15;99858.28;2076402;28;19925;-52
2022/05/20 05:35:55;;;;;;;;;;;;;;;23.37;57.44;99855.56;2078042;28;19975;-49
2022/05/20 05:36:56;;;;;;;;;;;;;;;23.36;57.15;99859.28;2077015;28;19929;-49
2022/05/20 05:37:57;;;;;;;;;;;;;;;23.36;57.20;99862.00;2077200;28;19956;-48
2022/05/20 05:38:59;;;;;;;;;;;;;;;23.36;57.31;99855.75;2077423;28;22426;-48
2022/05/20 05:39:59;;;;;;;;;;;;;;;23.36;57.31;99855.75;2076045;28;19986;-47
2022/05/20 05:41:01;;;;;;;;;;;;;;;23.36;57.28;99859.28;2077045;28;19925;-52